METAR Analyzer

一覧表示

Hello, Guest. (Login)

WADD/DPS  -  バリ/デンパサール/ングラ・ライ

観測日時
2022-09-30 06:30 (UTC) (43分前)
気温
27
露点
26
湿数
1
相対湿度
94.3%
QNH
1009hPa
推定現地気圧
1008.5hPa
推定海面気圧
1009.0hPa
体感温度
22.7
(無風時)
27.6
HI
31.9
気温前日比
±0
体感温度前日比
-0.6
HI前日比
+1.8
水平視程
7000m
鉛直視程
データなし
雲底高度
1500ft AGL
V/I
VMC (VFR)
RVR
No RVR data
卓越風
8kt from 170°
ガスト
No gust
降水
弱い雨
その他の天気
報告なし
少しの積乱雲 @ 1500ft AGL / 隙間のある雲 @ 1500ft AGL

WADD 300630Z 17008KT 7000 -RA FEW015CB BKN015 27/26 Q1009 RETS BECMG TL0730 7000 -RA

RPLL/MNL  -  マニラ/ニノイ・アキノ

観測日時
2022-09-30 06:00 (UTC) (73分前)
気温
32
露点
23
湿数
9
相対湿度
59.1%
QNH
1009.1hPa
推定現地気圧
1006.3hPa
推定海面気圧
1008.9hPa
体感温度
26.8
(無風時)
28.9
HI
36.8
気温前日比
+3
体感温度前日比
+2.7
HI前日比
+5.2
水平視程
>10000m
鉛直視程
データなし
雲底高度
10000ft AGL
V/I
VMC (VFR)
RVR
No RVR data
卓越風
7kt from 130° (90° ~ 190°)
ガスト
No gust
降水
報告なし
その他の天気
報告なし
散在する雲 @ 2300ft AGL / 隙間のある雲 @ 10000ft AGL

RPLL 300600Z 13007KT 090V190 9999 SCT023 BKN100 32/23 Q1009 NOSIG RMK A2980

VTBS/BKK  -  バンコク/スワンナプーム

観測日時
2022-09-30 06:30 (UTC) (43分前)
気温
31
露点
24
湿数
7
相対湿度
66.4%
QNH
1004hPa
推定現地気圧
1003.8hPa
推定海面気圧
1004.0hPa
体感温度
25.6
(無風時)
28.8
HI
36.5
気温前日比
+4
体感温度前日比
+2.6
HI前日比
+6.9
水平視程
>10000m
鉛直視程
データなし
雲底高度
No dense clouds
V/I
VMC (VFR)
RVR
No RVR data
卓越風
14kt from 200°
ガスト
No gust
降水
報告なし
その他の天気
報告なし
少しの雲 @ 2000ft AGL / 散在する雲 @ 3000ft AGL

VTBS 300630Z 20014KT 9999 FEW020 SCT030 31/24 Q1004 NOSIG

VTSM/USM  -  サムイ

観測日時
2022-09-30 06:00 (UTC) (73分前)
気温
33
露点
24
湿数
9
相対湿度
59.3%
QNH
1007hPa
推定現地気圧
1004.6hPa
推定海面気圧
1006.8hPa
体感温度
28
(無風時)
29.7
HI
39.3
気温前日比
+4
体感温度前日比
+3.8
HI前日比
+6.5
水平視程
>10000m
鉛直視程
データなし
雲底高度
No dense clouds
V/I
VMC (VFR)
RVR
No RVR data
卓越風
7kt from 270° (240° ~ 330°)
ガスト
No gust
降水
報告なし
その他の天気
報告なし
散在する雲 @ 2000ft AGL

VTSM 300600Z 27007KT 240V330 9999 SCT020 33/24 Q1007 NOSIG

232.4msec